NWS Home NWS Lubbock West Texas Mesonet Day over Day changes as of 0103 PM, Fri Mar 05, 2021

Latest   N   C   S   Daily Sum   3hrΔ   24hrΔ   Soil Data 
Site Map   24hr Precip   72hr Precip   Google Plot


Station Time of Last Temp Today Temp Yesterday Delta-T Dewpoint Today Dewpoint Yesterday Delta-Td Delta-Pressure (mB)
Reese Center  12:55 PM 53.5 78.9 -25.4 36.9 29 7.9 10.1
Abernathy  12:55 PM 51.6 77 -25.4 37.1 30.5 6.6 9.5
Plainview  12:55 PM 49.7 75.2 -25.5 37.1 29.8 7.3 10.4
Tahoka  12:55 PM 54.9 78.4 -23.5 38.8 32.1 6.7 8.2
Slaton  12:55 PM 54.2 75.1 -20.9 38.2 36.1 2.1 8.2
Levelland  12:55 PM 53 77.2 -24.2 38.8 28.8 10 9.8
Roaring Springs  12:55 PM 50.6 64.9 -14.2 40.1 36.8 3.2 7.4
Floydada  12:55 PM 51.6 73.5 -21.9 36.1 31.5 4.6 8.5
Ralls  12:55 PM 52.7 73.4 -20.7 38.4 34.5 3.9 8
Brownfield  12:55 PM 55.7 80.1 -24.4 38.7 27.7 11 8.6
Muleshoe  12:55 PM 48.4 72.8 -24.4 39.9 19.9 20 10.8
Morton  12:55 PM 53.2 74.4 -21.3 36.9 19.9 17 9.8
Comanche Springs  12:55 PM 54.5 69.4 -14.9 43.2 41.8 1.4 6.7
O'Donnell  12:55 PM 58.4 80.1 -21.6 39.3 32 7.3 8.2
Seagraves  12:55 PM 55.7 78.5 -22.8 37.3 28.4 9 8.5
Amherst  12:55 PM 52.8 75.5 -22.8 39.1 28.6 10.6 10.3
Plains  12:55 PM 53.5 74.2 -20.7 38 30.3 7.8 8.7
Lamesa  12:55 PM 57.5 80 -22.5 39 31.5 7.5 8.2
Hart  12:55 PM 48.7 73.7 -25 38.9 28.3 10.6 10.6
Friona  12:55 PM 47.1 70.5 -23.4 38 21.9 16.1 11
Dimmitt  12:55 PM 48.1 72 -23.9 38.6 26.2 12.4 10.5
Tulia  12:55 PM 47.2 74.4 -27.2 37.9 32.7 5.2 10.9
Silverton  12:55 PM 50.6 67.3 -16.7 37.4 34.7 2.7 8.4
Post  12:55 PM 56.8 77.6 -20.8 40.2 36.9 3.3 8
Seminole  12:55 PM 57.1 78.4 -21.3 39.1 30 9.1 8.5
Gail  12:55 PM 60.5 79.7 -19.1 39.7 36.5 3.2 7.3
White River Lake  12:55 PM 54 73.4 -19.3 39 36.3 2.7 7.4
Graham  12:55 PM 57.4 78.5 -21.1 39 35.3 3.7 7.7
Sundown  12:55 PM 54.4 76.8 -22.5 36.9 24.2 12.6 9
Anton  12:55 PM 52.3 79 -26.7 37.9 28.9 9 10.4
Fluvanna  12:55 PM 58.8 78.1 -19.3 39.1 37.5 1.7 7.2
Spur  12:55 PM 55.4 72.7 -17.3 40.5 40 0.6 7.5
Northwest Lubbock  12:55 PM 53.4 81.2 -27.8 36.9 30.7 6.2 9.7
Guthrie  12:55 PM 50.7 68.3 -17.6 42.5 38.4 4.1 7.4
Clarendon  12:55 PM 49.1 62.3 -13.2 39.4 31.5 7.9 9.4
Paducah  12:55 PM 53.4 71.6 -18.2 42.3 38.7 3.5 7.5
Snyder  12:55 PM 63.4 80.5 -17.2 39.5 38.9 0.6 6.3
Memphis  12:55 PM 52.7 60 -7.3 41.5 36 5.5 8.1
Jayton  12:55 PM 58.2 72.2 -14 41.4 42.3 -0.9 6.7
Pampa  12:55 PM 47.9 61.4 -13.6 41.4 29.2 12.2 10
Aspermont  12:55 PM 61 72 -11 41.6 43.1 -1.5 5.8
Hereford  12:55 PM 45.8 71.9 -26 39.2 26.1 13.1 11.5
Goodlett  12:55 PM 55.4 68.1 -12.7 42.5 40 2.5 6.4
McLean  12:55 PM 48.6 61.6 -13 40.6 30.3 10.3 9
Denver City  12:55 PM 54.3 75.2 -20.9 37.8 29.2 8.6 8.5
Lake Alan Henry  12:55 PM 58.7 77.5 -18.9 40.6 39.8 0.8 7.8
Wolfforth  12:55 PM 55 79.9 -24.9 37.8 29 8.9 9.3
Andrews  12:55 PM 58.9 81 -22.1 37.5 29.7 7.8 8.1
Turkey  12:55 PM 55.2 63.2 -8 39 34.7 4.3 8.2
Childress  12:55 PM 52.8 69 -16.1 40.5 37.2 3.3 7.1
Tatum  12:55 PM 52.2 72.6 -20.4 36 25 11 9.1
Northfield  12:55 PM 54.1 69.9 -15.9 39.6 33.9 5.8 7.7
Dora  12:55 PM 50 69.3 -19.3 36.7 15 21.7 9.5
Northwest San Angelo  12:55 PM 67.1 77.9 -10.8 40 44.3 -4.3 3.7
Saint Lawrence  12:55 PM 61.7 76.8 -15.1 39.8 36.5 3.2 6.5
Haskell  12:55 PM 60.5 74.1 -13.6 42.6 40.4 2.1 4.9
Wall  12:55 PM 69.2 80.8 -11.6 40 43.9 -3.9 3.2
Seymour  12:55 PM 56.4 69.7 -13.3 43.9 44.9 -1 3.7
Knox City  12:55 PM 59.3 74.3 -15 43 42.5 0.5 5.9
Guadalupe Mtns Park  11:10 AM 53.6 60 -6.5 22.8 25.2 -2.4 5.6
Caprock Canyons   12:50 PM 51.8 66 -14.1 38.1 33.3 4.8 8.5
Odell  12:55 PM 51.7 65.8 -14.1 43.6 43.2 0.4 5.2
Coyanosa  12:55 PM 66.3 80.9 -14.6 34.4 32.3 2.1 8.5
Big Lake  12:55 PM 64.9 72.4 -7.5 39.7 43.1 -3.3 4.9
Junction  12:55 PM 70.1 76.5 -6.4 38.3 49.5 -11.2 1.4
Hobbs  12:55 PM 54.3 73.4 -19.1 34.5 24.2 10.4 8.1
Canadian  12:55 PM 50.3 69.3 -19 44.8 31.9 12.8 10.5
Palo Duro Canyon State Park Rim  12:55 PM 46.4 68.9 -22.5 39 34.1 4.9 11.1
Bootleg  12:55 PM 46.1 67.4 -21.3 37.8 21 16.8 10.8
Sterling City  12:55 PM 64.1 79.1 -14.9 38.8 40.9 -2 5.5
Mertzon  12:55 PM 66.8 74.9 -8.1 38.9 45.2 -6.3 4.6
Persimmon Gap  12:55 PM 68.7 81.2 -12.6 23.8 33.4 -9.6 6.2
Weinert  12:55 PM 58.6 76.1 -17.5 42.1 42.6 -0.5 5.4
Claude 12 Southwest  12:55 PM 45.7 64.4 -18.7 40.2 31.9 8.3 10.5
Amarillo 7 South Southeast  12:55 PM 44.5 75.1 -30.7 44.4 29.8 14.6 11.8
Umbarger  12:55 PM 45.6 72.5 -26.9 41.3 27.2 14.1 11.9
Lomax  12:55 PM 62.9 79.9 -17 37.5 36.9 0.6 7.3
Amarillo 9 North Northeast  12:55 PM 48.6 74 -25.4 41 29 12 12.5
Aiken  12:55 PM 50.4 75.3 -24.9 37.3 31.4 5.9 9.7
Sweetwater  12:55 PM 61.7 73.7 -12 39.9 44.7 -4.7 5.3
Dozier  12:55 PM 47.1 58 -10.9 44.7 35.2 9.6 8.5
Amarillo 15 North Northwest  12:55 PM 50.4 75.8 -25.4 40 24.4 15.6 13.1
Menard  12:55 PM 67.1 75.9 -8.9 38.7 46.7 -7.9 2.4
Tarzan  12:55 PM 61.3 81.8 -20.5 37.9 32.8 5 8.1
Goodnight  12:55 PM 49.9 64.7 -14.8 40.2 31.6 8.7 10
Boys Ranch   12:55 PM 49 74.4 -25.4 41.7 23.6 18.1 14.5
Fort McKavett  12:55 PM 67.8 77.9 -10.1 39 46.6 -7.6 2.3
Fort Chadbourne  12:55 PM 63.8 70 -6.1 41.1 48.9 -7.8 3.6
Palo Duro Canyon State Park Floor  12:55 PM 50 70.8 -20.8 40.2 33.9 6.4 12
Fort Lancaster  12:55 PM 70.3 72.8 -2.5 36.5 44.3 -7.8 3.8
Dell City 1N  12:55 PM 63.8 69.9 -6.1 29 25.1 3.9 5.9
Clyde  12:55 PM 60 70.7 -10.7 42.2 46.8 -4.6 3
Snyder SSW  12:55 PM 61.3 77.8 -16.4 39.5 39.6 -0 6.8
Panhandle  12:55 PM 47.4 64.6 -17.2 41.6 30.2 11.4 10.7
Vigo Park  12:55 PM 47.2 70.9 -23.8 39.5 34.2 5.2 10.3
Welch  12:55 PM 59 80.3 -21.4 39.5 31.2 8.3 8
Throckmorton  12:55 PM 58.9 75.7 -16.8 43.6 45.8 -2.2 3.5
Sierra Blanca  12:55 PM 61.4 67.4 -5.9 18.3 25.5 -7.3 5.4
Fort Lewis CO  12:55 PM 47.1 34.4 12.7 24.8 28.7 -3.9 7.6
New Home  12:55 PM 54 77.5 -23.4 38.3 32.4 5.9 8.5
McCamey  12:55 PM 66.4 79.1 -12.7 38.2 39.9 -1.7 7.4
Stamford  12:55 PM 61.4 73.6 -12.3 43.3 44.5 -1.2 4.5
Crowell  12:55 PM 56.2 70.5 -14.3 43.9 42.5 1.4 5.9
Stinnett  12:55 PM 54.1 66 -11.9 38.8 31.5 7.3 11.8
Colorado City  12:55 PM 64 80.6 -16.6 39.2 40.8 -1.5 6.6
Happy  12:55 PM 46.4 76 -29.6 39.8 30.5 9.3 11.1
Endee  12:55 PM 48.8 68.6 -19.9 39.1 22.1 17 11.8
JA Ranch  12:55 PM 51.9 64 -12.2 39.5 32.6 6.9 9.6
Adrian  12:55 PM 45.8 67.4 -21.6 38.8 21.6 17.2 11.7
Lesley  12:55 PM 54.5 60.6 -6.1 39.8 33.3 6.4 9.3
Earth  12:55 PM 51.3 74 -22.7 39.4 25.8 13.7 10.5
Van Horn  12:55 PM 64.4 74.7 -10.3 26 29.7 -3.7 6.7
Rotan  12:55 PM 61 76.6 -15.6 40.8 41.7 -0.9 6.3
Fritch  12:55 PM 51.2 71.4 -20.2 39.1 31.4 7.7 12.4
Estelline  12:55 PM 54.4 69.7 -15.3 40.5 38 2.5 7.9
Crane  12:55 PM 65.6 80.8 -15.1 37.6 37.3 0.3 7.4
Hackberry  12:55 PM 56.9 72.8 -15.8 43.4 42.7 0.8 7.1
Romero 11SSW  12:55 PM 49.2 67.6 -18.4 39.8 22.3 17.4 13.1
Palo Duro Reservoir 1NW  12:55 PM 52.6 63 -10.4 40.9 29.2 11.8 12.1
South Plains 3ENE  12:55 PM 51.4 73.5 -22.1 37.5 34 3.5 8.6
Lake McClellan 2NW  12:55 PM 47.2 59.2 -12 39.8 30.4 9.4 8.9
Segovia 7SSW  12:55 PM 67.7 69.5 -1.8 34.9 49.7 -14.9 0.5
Castolon 1NW BBNP  12:55 PM 73 79.7 -6.8 19.6 32.9 -13.3 6.2
Smyer  12:55 PM 52.9 78.7 -25.9 38.3 29.3 9 10
Doole 3WNW  12:55 PM 68 73.5 -5.5 38.6 50.3 -11.6 2.1
Stratford  12:55 PM 48.3 73.7 -25.3 42.8 21.8 20.9 14.3
Truscott  12:55 PM 55 72.1 -17.1 42.9 42.2 0.7 6.3
Hefner  12:55 PM 57.5 72 -14.4 43.1 46.6 -3.5 4.7
Kent I10-I20 Split  12:55 PM 60.6 77.9 -17.3 28.3 27.8 0.5 8.1
Olton  12:55 PM 50.9 77.5 -26.7 37.8 31.7 6 10.4
McAdoo  12:55 PM 51 68 -17 40.2 37.8 2.4 7.2
Borger  12:55 PM 52 64.3 -12.4 40.8 29.8 11 11.3
Vega  12:55 PM 45.3 71.3 -25.9 41.5 21.8 19.7 12.4
Wellington  12:55 PM 52.1 60.9 -8.8 40.4 36.9 3.5 7.3

West Texas Mesonet Home   Site Map/Menu  NWS Lubbock Soil Data  Daily Summary Page  24hr Precip  72hr Precip  Google Plot